sensor_id;sensor_type;location;lat;lon;timestamp;temperature;humidity
5419;DHT22;2732;52.092;11.556;2024-03-29T00:04:48;6.80;99.90
5419;DHT22;2732;52.092;11.556;2024-03-29T00:09:48;6.70;99.90
5419;DHT22;2732;52.092;11.556;2024-03-29T00:14:49;6.70;99.90
5419;DHT22;2732;52.092;11.556;2024-03-29T00:19:51;6.60;99.90
5419;DHT22;2732;52.092;11.556;2024-03-29T00:24:52;6.60;99.90
5419;DHT22;2732;52.092;11.556;2024-03-29T00:29:52;6.50;99.90
5419;DHT22;2732;52.092;11.556;2024-03-29T00:34:53;6.50;99.90
5419;DHT22;2732;52.092;11.556;2024-03-29T00:39:54;6.40;99.90
5419;DHT22;2732;52.092;11.556;2024-03-29T00:44:55;6.30;99.90
5419;DHT22;2732;52.092;11.556;2024-03-29T00:49:55;6.30;99.90
5419;DHT22;2732;52.092;11.556;2024-03-29T00:54:56;6.20;99.90
5419;DHT22;2732;52.092;11.556;2024-03-29T00:59:56;6.20;99.90
5419;DHT22;2732;52.092;11.556;2024-03-29T01:04:57;6.10;99.90
5419;DHT22;2732;52.092;11.556;2024-03-29T01:09:58;6.10;99.90
5419;DHT22;2732;52.092;11.556;2024-03-29T01:14:59;6.10;99.90
5419;DHT22;2732;52.092;11.556;2024-03-29T01:19:59;6.00;99.90
5419;DHT22;2732;52.092;11.556;2024-03-29T01:25:00;6.00;99.90
5419;DHT22;2732;52.092;11.556;2024-03-29T01:30:02;6.00;99.90
5419;DHT22;2732;52.092;11.556;2024-03-29T01:35:03;6.00;99.90
5419;DHT22;2732;52.092;11.556;2024-03-29T01:40:04;6.00;99.90
5419;DHT22;2732;52.092;11.556;2024-03-29T01:45:06;6.00;99.90
5419;DHT22;2732;52.092;11.556;2024-03-29T01:50:08;6.00;99.90
5419;DHT22;2732;52.092;11.556;2024-03-29T01:55:09;6.00;99.90
5419;DHT22;2732;52.092;11.556;2024-03-29T02:00:10;6.00;99.90
5419;DHT22;2732;52.092;11.556;2024-03-29T02:05:11;6.00;99.90
5419;DHT22;2732;52.092;11.556;2024-03-29T02:10:12;5.90;99.90
5419;DHT22;2732;52.092;11.556;2024-03-29T02:15:16;6.00;99.90
5419;DHT22;2732;52.092;11.556;2024-03-29T02:20:17;6.00;99.90
5419;DHT22;2732;52.092;11.556;2024-03-29T02:25:17;6.00;99.90
5419;DHT22;2732;52.092;11.556;2024-03-29T02:30:18;6.00;99.90
5419;DHT22;2732;52.092;11.556;2024-03-29T02:35:18;6.00;99.90
5419;DHT22;2732;52.092;11.556;2024-03-29T02:40:20;6.00;99.90
5419;DHT22;2732;52.092;11.556;2024-03-29T02:45:20;6.00;99.90
5419;DHT22;2732;52.092;11.556;2024-03-29T02:50:22;5.90;99.90
5419;DHT22;2732;52.092;11.556;2024-03-29T02:55:22;5.90;99.90
5419;DHT22;2732;52.092;11.556;2024-03-29T03:00:23;5.90;99.90
5419;DHT22;2732;52.092;11.556;2024-03-29T03:05:23;5.90;99.90
5419;DHT22;2732;52.092;11.556;2024-03-29T03:10:24;5.90;99.90
5419;DHT22;2732;52.092;11.556;2024-03-29T03:15:43;5.90;99.90
5419;DHT22;2732;52.092;11.556;2024-03-29T03:20:53;5.90;99.90
5419;DHT22;2732;52.092;11.556;2024-03-29T03:25:55;5.90;99.90
5419;DHT22;2732;52.092;11.556;2024-03-29T03:30:57;5.90;99.90
5419;DHT22;2732;52.092;11.556;2024-03-29T03:35:57;5.80;99.90
5419;DHT22;2732;52.092;11.556;2024-03-29T03:40:58;5.80;99.90
5419;DHT22;2732;52.092;11.556;2024-03-29T03:46:02;5.90;99.90
5419;DHT22;2732;52.092;11.556;2024-03-29T03:51:02;5.90;99.90
5419;DHT22;2732;52.092;11.556;2024-03-29T03:56:03;5.90;99.90
5419;DHT22;2732;52.092;11.556;2024-03-29T04:01:05;5.90;99.90
5419;DHT22;2732;52.092;11.556;2024-03-29T04:06:06;5.90;99.90
5419;DHT22;2732;52.092;11.556;2024-03-29T04:11:07;5.90;99.90
5419;DHT22;2732;52.092;11.556;2024-03-29T04:16:07;5.90;99.90
5419;DHT22;2732;52.092;11.556;2024-03-29T04:21:08;5.90;99.90
5419;DHT22;2732;52.092;11.556;2024-03-29T04:26:08;5.90;99.90
5419;DHT22;2732;52.092;11.556;2024-03-29T04:31:09;5.90;99.90
5419;DHT22;2732;52.092;11.556;2024-03-29T04:36:09;5.90;99.90
5419;DHT22;2732;52.092;11.556;2024-03-29T04:41:10;5.90;99.90
5419;DHT22;2732;52.092;11.556;2024-03-29T04:46:12;5.90;99.90
5419;DHT22;2732;52.092;11.556;2024-03-29T04:51:13;6.00;99.90
5419;DHT22;2732;52.092;11.556;2024-03-29T04:56:14;6.00;99.90
5419;DHT22;2732;52.092;11.556;2024-03-29T05:01:15;6.00;99.90
5419;DHT22;2732;52.092;11.556;2024-03-29T05:06:15;6.00;99.90
5419;DHT22;2732;52.092;11.556;2024-03-29T05:11:16;6.00;99.90
5419;DHT22;2732;52.092;11.556;2024-03-29T05:16:16;6.00;99.90
5419;DHT22;2732;52.092;11.556;2024-03-29T05:21:17;6.10;99.90
5419;DHT22;2732;52.092;11.556;2024-03-29T05:26:17;6.10;99.90
5419;DHT22;2732;52.092;11.556;2024-03-29T05:31:18;6.10;99.90
5419;DHT22;2732;52.092;11.556;2024-03-29T05:36:19;6.10;99.90
5419;DHT22;2732;52.092;11.556;2024-03-29T05:41:20;6.20;99.90
5419;DHT22;2732;52.092;11.556;2024-03-29T05:46:20;6.20;99.90
5419;DHT22;2732;52.092;11.556;2024-03-29T05:51:21;6.20;99.90
5419;DHT22;2732;52.092;11.556;2024-03-29T05:56:21;6.20;99.90
5419;DHT22;2732;52.092;11.556;2024-03-29T06:01:22;6.30;99.90
5419;DHT22;2732;52.092;11.556;2024-03-29T06:06:23;6.30;99.90
5419;DHT22;2732;52.092;11.556;2024-03-29T06:11:24;6.40;99.90
5419;DHT22;2732;52.092;11.556;2024-03-29T06:16:25;6.40;99.90
5419;DHT22;2732;52.092;11.556;2024-03-29T06:21:45;6.40;99.90
5419;DHT22;2732;52.092;11.556;2024-03-29T06:26:46;6.50;99.90
5419;DHT22;2732;52.092;11.556;2024-03-29T06:31:46;6.50;99.90
5419;DHT22;2732;52.092;11.556;2024-03-29T06:36:47;6.60;99.90
5419;DHT22;2732;52.092;11.556;2024-03-29T06:41:48;6.60;99.90
5419;DHT22;2732;52.092;11.556;2024-03-29T06:46:48;6.70;99.90
5419;DHT22;2732;52.092;11.556;2024-03-29T06:51:49;6.80;99.90
5419;DHT22;2732;52.092;11.556;2024-03-29T06:56:50;6.80;99.90
5419;DHT22;2732;52.092;11.556;2024-03-29T07:01:51;6.80;99.90
5419;DHT22;2732;52.092;11.556;2024-03-29T07:06:55;6.90;99.90
5419;DHT22;2732;52.092;11.556;2024-03-29T07:11:55;6.90;99.90
5419;DHT22;2732;52.092;11.556;2024-03-29T07:16:56;7.00;99.90
5419;DHT22;2732;52.092;11.556;2024-03-29T07:21:57;7.00;99.90
5419;DHT22;2732;52.092;11.556;2024-03-29T07:26:58;7.10;99.90
5419;DHT22;2732;52.092;11.556;2024-03-29T07:31:58;7.10;99.90
5419;DHT22;2732;52.092;11.556;2024-03-29T07:36:59;7.30;99.90
5419;DHT22;2732;52.092;11.556;2024-03-29T07:42:00;7.30;99.90
5419;DHT22;2732;52.092;11.556;2024-03-29T07:47:00;7.30;99.90
5419;DHT22;2732;52.092;11.556;2024-03-29T07:52:03;7.40;99.90
5419;DHT22;2732;52.092;11.556;2024-03-29T07:57:05;7.40;99.90
5419;DHT22;2732;52.092;11.556;2024-03-29T08:02:09;7.50;99.90
5419;DHT22;2732;52.092;11.556;2024-03-29T08:07:09;7.60;99.90
5419;DHT22;2732;52.092;11.556;2024-03-29T08:12:12;7.60;99.90
5419;DHT22;2732;52.092;11.556;2024-03-29T08:17:12;7.70;99.90
5419;DHT22;2732;52.092;11.556;2024-03-29T08:22:13;7.80;99.90
5419;DHT22;2732;52.092;11.556;2024-03-29T08:27:14;7.90;99.90
5419;DHT22;2732;52.092;11.556;2024-03-29T08:32:14;8.10;99.90
5419;DHT22;2732;52.092;11.556;2024-03-29T08:37:15;8.20;99.90
5419;DHT22;2732;52.092;11.556;2024-03-29T08:42:16;8.40;99.90
5419;DHT22;2732;52.092;11.556;2024-03-29T08:47:17;8.40;99.90
5419;DHT22;2732;52.092;11.556;2024-03-29T08:52:18;8.50;99.90
5419;DHT22;2732;52.092;11.556;2024-03-29T08:57:18;8.60;99.90
5419;DHT22;2732;52.092;11.556;2024-03-29T09:02:19;8.70;99.90
5419;DHT22;2732;52.092;11.556;2024-03-29T09:07:19;8.80;99.90
5419;DHT22;2732;52.092;11.556;2024-03-29T09:12:22;9.00;99.90
5419;DHT22;2732;52.092;11.556;2024-03-29T09:17:23;9.20;99.90
5419;DHT22;2732;52.092;11.556;2024-03-29T09:22:24;9.30;99.90
5419;DHT22;2732;52.092;11.556;2024-03-29T09:27:26;9.40;99.90
5419;DHT22;2732;52.092;11.556;2024-03-29T09:32:27;9.60;99.90
5419;DHT22;2732;52.092;11.556;2024-03-29T09:37:28;9.80;99.90
5419;DHT22;2732;52.092;11.556;2024-03-29T09:42:30;9.90;99.90
5419;DHT22;2732;52.092;11.556;2024-03-29T09:47:32;10.20;99.90
5419;DHT22;2732;52.092;11.556;2024-03-29T09:52:34;10.30;99.90
5419;DHT22;2732;52.092;11.556;2024-03-29T09:57:35;10.50;99.90
5419;DHT22;2732;52.092;11.556;2024-03-29T10:02:36;10.70;99.90
5419;DHT22;2732;52.092;11.556;2024-03-29T10:07:38;10.90;99.90
5419;DHT22;2732;52.092;11.556;2024-03-29T10:12:40;11.10;99.90
5419;DHT22;2732;52.092;11.556;2024-03-29T10:17:50;11.30;99.90
5419;DHT22;2732;52.092;11.556;2024-03-29T10:22:50;11.50;99.90
5419;DHT22;2732;52.092;11.556;2024-03-29T10:27:51;11.90;99.90
5419;DHT22;2732;52.092;11.556;2024-03-29T10:32:52;12.40;99.90
5419;DHT22;2732;52.092;11.556;2024-03-29T10:37:53;13.00;99.90
5419;DHT22;2732;52.092;11.556;2024-03-29T10:42:54;13.00;99.90
5419;DHT22;2732;52.092;11.556;2024-03-29T10:47:55;12.90;99.90
5419;DHT22;2732;52.092;11.556;2024-03-29T10:53:00;12.80;99.90
5419;DHT22;2732;52.092;11.556;2024-03-29T10:58:04;13.10;99.90
5419;DHT22;2732;52.092;11.556;2024-03-29T11:03:35;13.20;99.90
5419;DHT22;2732;52.092;11.556;2024-03-29T11:08:39;13.30;99.90
5419;DHT22;2732;52.092;11.556;2024-03-29T11:13:58;13.60;99.90
5419;DHT22;2732;52.092;11.556;2024-03-29T11:19:03;13.70;99.90
5419;DHT22;2732;52.092;11.556;2024-03-29T11:24:05;13.70;99.90
5419;DHT22;2732;52.092;11.556;2024-03-29T11:29:06;13.80;99.90
5419;DHT22;2732;52.092;11.556;2024-03-29T11:34:08;13.70;99.90
5419;DHT22;2732;52.092;11.556;2024-03-29T11:39:22;13.70;99.90
5419;DHT22;2732;52.092;11.556;2024-03-29T11:44:23;13.80;99.90
5419;DHT22;2732;52.092;11.556;2024-03-29T11:49:24;13.80;99.90
5419;DHT22;2732;52.092;11.556;2024-03-29T11:54:25;13.90;99.90
5419;DHT22;2732;52.092;11.556;2024-03-29T11:59:25;14.10;99.90
5419;DHT22;2732;52.092;11.556;2024-03-29T12:04:26;14.30;99.90
5419;DHT22;2732;52.092;11.556;2024-03-29T12:09:26;14.50;99.90
5419;DHT22;2732;52.092;11.556;2024-03-29T12:14:27;14.50;99.90
5419;DHT22;2732;52.092;11.556;2024-03-29T12:19:30;14.50;99.90
5419;DHT22;2732;52.092;11.556;2024-03-29T12:24:32;14.30;99.90
5419;DHT22;2732;52.092;11.556;2024-03-29T12:29:34;14.30;99.90
5419;DHT22;2732;52.092;11.556;2024-03-29T12:34:34;14.40;99.90
5419;DHT22;2732;52.092;11.556;2024-03-29T12:39:35;14.50;99.90
5419;DHT22;2732;52.092;11.556;2024-03-29T12:44:38;14.60;99.90
5419;DHT22;2732;52.092;11.556;2024-03-29T12:49:40;14.70;99.90
5419;DHT22;2732;52.092;11.556;2024-03-29T12:54:40;15.20;99.90
5419;DHT22;2732;52.092;11.556;2024-03-29T12:59:41;15.40;99.90
5419;DHT22;2732;52.092;11.556;2024-03-29T13:04:43;15.60;99.90
5419;DHT22;2732;52.092;11.556;2024-03-29T13:09:44;15.60;99.90
5419;DHT22;2732;52.092;11.556;2024-03-29T13:14:45;15.70;99.90
5419;DHT22;2732;52.092;11.556;2024-03-29T13:19:46;15.80;99.90
5419;DHT22;2732;52.092;11.556;2024-03-29T13:24:46;15.80;99.90
5419;DHT22;2732;52.092;11.556;2024-03-29T13:29:47;16.00;99.90
5419;DHT22;2732;52.092;11.556;2024-03-29T13:34:47;16.10;99.90
5419;DHT22;2732;52.092;11.556;2024-03-29T13:39:48;16.10;99.90
5419;DHT22;2732;52.092;11.556;2024-03-29T13:44:54;16.00;99.90
5419;DHT22;2732;52.092;11.556;2024-03-29T13:49:55;16.00;99.90
5419;DHT22;2732;52.092;11.556;2024-03-29T13:54:57;16.00;99.90
5419;DHT22;2732;52.092;11.556;2024-03-29T13:59:58;16.10;99.90
5419;DHT22;2732;52.092;11.556;2024-03-29T14:04:59;16.00;99.90
5419;DHT22;2732;52.092;11.556;2024-03-29T14:10:00;15.80;99.90
5419;DHT22;2732;52.092;11.556;2024-03-29T14:15:04;15.70;99.90
5419;DHT22;2732;52.092;11.556;2024-03-29T14:20:07;15.70;99.90
5419;DHT22;2732;52.092;11.556;2024-03-29T14:25:08;15.70;99.90
5419;DHT22;2732;52.092;11.556;2024-03-29T14:30:11;15.60;99.90
5419;DHT22;2732;52.092;11.556;2024-03-29T14:35:12;15.60;99.90
5419;DHT22;2732;52.092;11.556;2024-03-29T14:40:14;15.50;99.90
5419;DHT22;2732;52.092;11.556;2024-03-29T14:45:15;15.40;99.90
5419;DHT22;2732;52.092;11.556;2024-03-29T14:50:16;15.40;99.90
5419;DHT22;2732;52.092;11.556;2024-03-29T14:55:19;15.40;99.90
5419;DHT22;2732;52.092;11.556;2024-03-29T15:00:19;15.30;99.90
5419;DHT22;2732;52.092;11.556;2024-03-29T15:05:20;15.20;99.90
5419;DHT22;2732;52.092;11.556;2024-03-29T15:10:22;15.10;99.90
5419;DHT22;2732;52.092;11.556;2024-03-29T15:15:23;15.00;99.90
5419;DHT22;2732;52.092;11.556;2024-03-29T15:20:24;15.00;99.90
5419;DHT22;2732;52.092;11.556;2024-03-29T15:25:24;15.00;99.90
5419;DHT22;2732;52.092;11.556;2024-03-29T15:30:27;15.10;99.90
5419;DHT22;2732;52.092;11.556;2024-03-29T15:35:28;15.10;99.90
5419;DHT22;2732;52.092;11.556;2024-03-29T15:40:28;15.30;99.90
5419;DHT22;2732;52.092;11.556;2024-03-29T15:45:31;15.40;99.90
5419;DHT22;2732;52.092;11.556;2024-03-29T15:50:31;15.40;99.90
5419;DHT22;2732;52.092;11.556;2024-03-29T15:55:33;15.30;99.90
5419;DHT22;2732;52.092;11.556;2024-03-29T16:00:34;15.20;99.90
5419;DHT22;2732;52.092;11.556;2024-03-29T16:05:40;15.20;99.90
5419;DHT22;2732;52.092;11.556;2024-03-29T16:10:54;15.10;99.90
5419;DHT22;2732;52.092;11.556;2024-03-29T16:16:03;15.00;99.90
5419;DHT22;2732;52.092;11.556;2024-03-29T16:21:04;14.90;99.90
5419;DHT22;2732;52.092;11.556;2024-03-29T16:26:06;14.80;99.90
5419;DHT22;2732;52.092;11.556;2024-03-29T16:31:07;14.80;99.90
5419;DHT22;2732;52.092;11.556;2024-03-29T16:36:08;14.70;99.90
5419;DHT22;2732;52.092;11.556;2024-03-29T16:41:10;14.60;99.90
5419;DHT22;2732;52.092;11.556;2024-03-29T16:46:11;14.50;99.90
5419;DHT22;2732;52.092;11.556;2024-03-29T16:51:13;14.50;99.90
5419;DHT22;2732;52.092;11.556;2024-03-29T16:56:14;14.40;99.90
5419;DHT22;2732;52.092;11.556;2024-03-29T17:01:15;14.20;99.90
5419;DHT22;2732;52.092;11.556;2024-03-29T17:06:16;14.10;99.90
5419;DHT22;2732;52.092;11.556;2024-03-29T17:11:17;14.10;99.90
5419;DHT22;2732;52.092;11.556;2024-03-29T17:16:18;13.90;99.90
5419;DHT22;2732;52.092;11.556;2024-03-29T17:21:19;13.90;99.90
5419;DHT22;2732;52.092;11.556;2024-03-29T17:26:20;13.70;99.90
5419;DHT22;2732;52.092;11.556;2024-03-29T17:31:22;13.60;99.90
5419;DHT22;2732;52.092;11.556;2024-03-29T17:36:23;13.50;99.90
5419;DHT22;2732;52.092;11.556;2024-03-29T17:41:24;13.40;99.90
5419;DHT22;2732;52.092;11.556;2024-03-29T17:46:25;13.30;99.90
5419;DHT22;2732;52.092;11.556;2024-03-29T17:51:26;13.30;99.90
5419;DHT22;2732;52.092;11.556;2024-03-29T17:56:30;13.20;99.90
5419;DHT22;2732;52.092;11.556;2024-03-29T18:01:33;13.10;99.90
5419;DHT22;2732;52.092;11.556;2024-03-29T18:06:33;13.00;99.90
5419;DHT22;2732;52.092;11.556;2024-03-29T18:11:35;12.90;99.90
5419;DHT22;2732;52.092;11.556;2024-03-29T18:16:36;12.80;99.90
5419;DHT22;2732;52.092;11.556;2024-03-29T18:21:37;12.80;99.90
5419;DHT22;2732;52.092;11.556;2024-03-29T18:26:40;12.70;99.90
5419;DHT22;2732;52.092;11.556;2024-03-29T18:31:41;12.70;99.90
5419;DHT22;2732;52.092;11.556;2024-03-29T18:36:42;12.60;99.90
5419;DHT22;2732;52.092;11.556;2024-03-29T18:41:43;12.60;99.90
5419;DHT22;2732;52.092;11.556;2024-03-29T18:46:44;12.50;99.90
5419;DHT22;2732;52.092;11.556;2024-03-29T18:51:45;12.40;99.90
5419;DHT22;2732;52.092;11.556;2024-03-29T18:56:46;12.40;99.90
5419;DHT22;2732;52.092;11.556;2024-03-29T19:01:49;12.40;99.90
5419;DHT22;2732;52.092;11.556;2024-03-29T19:06:50;12.30;99.90
5419;DHT22;2732;52.092;11.556;2024-03-29T19:11:52;12.30;99.90
5419;DHT22;2732;52.092;11.556;2024-03-29T19:16:55;12.20;99.90
5419;DHT22;2732;52.092;11.556;2024-03-29T19:21:56;12.20;99.90
5419;DHT22;2732;52.092;11.556;2024-03-29T19:26:57;12.10;99.90
5419;DHT22;2732;52.092;11.556;2024-03-29T19:31:58;12.10;99.90
5419;DHT22;2732;52.092;11.556;2024-03-29T19:36:59;12.00;99.90
5419;DHT22;2732;52.092;11.556;2024-03-29T19:42:00;12.00;99.90
5419;DHT22;2732;52.092;11.556;2024-03-29T19:47:01;11.90;99.90
5419;DHT22;2732;52.092;11.556;2024-03-29T19:52:02;11.90;99.90
5419;DHT22;2732;52.092;11.556;2024-03-29T19:57:04;11.90;99.90
5419;DHT22;2732;52.092;11.556;2024-03-29T20:02:06;11.80;99.90
5419;DHT22;2732;52.092;11.556;2024-03-29T20:07:08;11.80;99.90
5419;DHT22;2732;52.092;11.556;2024-03-29T20:12:09;11.70;99.90
5419;DHT22;2732;52.092;11.556;2024-03-29T20:17:10;11.70;99.90
5419;DHT22;2732;52.092;11.556;2024-03-29T20:22:13;11.70;99.90
5419;DHT22;2732;52.092;11.556;2024-03-29T20:27:15;11.60;99.90
5419;DHT22;2732;52.092;11.556;2024-03-29T20:32:16;11.60;99.90
5419;DHT22;2732;52.092;11.556;2024-03-29T20:37:17;11.60;99.90
5419;DHT22;2732;52.092;11.556;2024-03-29T20:42:19;11.50;99.90
5419;DHT22;2732;52.092;11.556;2024-03-29T20:47:22;11.50;99.90
5419;DHT22;2732;52.092;11.556;2024-03-29T20:52:23;11.40;99.90
5419;DHT22;2732;52.092;11.556;2024-03-29T20:57:24;11.40;99.90
5419;DHT22;2732;52.092;11.556;2024-03-29T21:02:25;11.40;99.90
5419;DHT22;2732;52.092;11.556;2024-03-29T21:07:44;11.30;99.90
5419;DHT22;2732;52.092;11.556;2024-03-29T21:12:46;11.30;99.90
5419;DHT22;2732;52.092;11.556;2024-03-29T21:17:47;11.20;99.90
5419;DHT22;2732;52.092;11.556;2024-03-29T21:22:48;11.20;99.90
5419;DHT22;2732;52.092;11.556;2024-03-29T21:27:48;11.10;99.90
5419;DHT22;2732;52.092;11.556;2024-03-29T21:32:49;11.10;99.90
5419;DHT22;2732;52.092;11.556;2024-03-29T21:37:50;11.00;99.90
5419;DHT22;2732;52.092;11.556;2024-03-29T21:42:51;10.90;99.90
5419;DHT22;2732;52.092;11.556;2024-03-29T21:47:52;10.90;99.90
5419;DHT22;2732;52.092;11.556;2024-03-29T21:52:52;10.80;99.90
5419;DHT22;2732;52.092;11.556;2024-03-29T21:57:53;10.80;99.90
5419;DHT22;2732;52.092;11.556;2024-03-29T22:02:55;10.70;99.90
5419;DHT22;2732;52.092;11.556;2024-03-29T22:07:55;10.70;99.90
5419;DHT22;2732;52.092;11.556;2024-03-29T22:12:56;10.70;99.90
5419;DHT22;2732;52.092;11.556;2024-03-29T22:17:56;10.60;99.90
5419;DHT22;2732;52.092;11.556;2024-03-29T22:22:57;10.60;99.90
5419;DHT22;2732;52.092;11.556;2024-03-29T22:27:57;10.60;99.90
5419;DHT22;2732;52.092;11.556;2024-03-29T22:32:58;10.60;99.90
5419;DHT22;2732;52.092;11.556;2024-03-29T22:37:59;10.60;99.90
5419;DHT22;2732;52.092;11.556;2024-03-29T22:43:00;10.50;99.90
5419;DHT22;2732;52.092;11.556;2024-03-29T22:48:01;10.50;99.90
5419;DHT22;2732;52.092;11.556;2024-03-29T22:53:02;10.50;99.90
5419;DHT22;2732;52.092;11.556;2024-03-29T22:58:06;10.50;99.90
5419;DHT22;2732;52.092;11.556;2024-03-29T23:03:06;10.40;99.90
5419;DHT22;2732;52.092;11.556;2024-03-29T23:08:07;10.40;99.90
5419;DHT22;2732;52.092;11.556;2024-03-29T23:13:07;10.40;99.90
5419;DHT22;2732;52.092;11.556;2024-03-29T23:18:08;10.40;99.90
5419;DHT22;2732;52.092;11.556;2024-03-29T23:23:08;10.40;99.90
5419;DHT22;2732;52.092;11.556;2024-03-29T23:28:09;10.30;99.90
5419;DHT22;2732;52.092;11.556;2024-03-29T23:33:10;10.40;99.90
5419;DHT22;2732;52.092;11.556;2024-03-29T23:38:10;10.40;99.90
5419;DHT22;2732;52.092;11.556;2024-03-29T23:43:11;10.30;99.90
5419;DHT22;2732;52.092;11.556;2024-03-29T23:48:12;10.30;99.90
5419;DHT22;2732;52.092;11.556;2024-03-29T23:53:12;10.30;99.90
5419;DHT22;2732;52.092;11.556;2024-03-29T23:58:13;10.30;99.90
